createdAt,value
2022-11-13T00:00:22.538Z,16.00
2022-11-13T00:05:33.013Z,19.00
2022-11-13T00:07:59.471Z,17.00
2022-11-13T00:10:26.874Z,14.33
2022-11-13T00:12:53.326Z,16.00
2022-11-13T00:15:20.707Z,13.33
2022-11-13T00:20:42.160Z,16.00
2022-11-13T00:23:08.616Z,16.00
2022-11-13T00:25:35.069Z,16.00
2022-11-13T00:28:02.449Z,15.67
2022-11-13T00:30:29.849Z,15.00
2022-11-13T00:35:52.250Z,17.00
2022-11-13T00:38:18.755Z,17.00
2022-11-13T00:40:45.212Z,18.50
2022-11-13T00:43:11.693Z,15.50
2022-11-13T00:45:38.164Z,16.50
2022-11-13T00:50:49.689Z,17.33
2022-11-13T00:53:18.224Z,13.50
2022-11-13T00:55:45.765Z,16.00
2022-11-13T00:58:13.158Z,16.33
2022-11-13T01:00:39.578Z,14.50
2022-11-13T01:06:01.028Z,17.50
2022-11-13T01:08:27.819Z,15.00
2022-11-13T01:10:54.554Z,16.00
2022-11-13T01:13:21.959Z,14.33
2022-11-13T01:15:49.350Z,15.33
2022-11-13T01:21:11.637Z,11.00
2022-11-13T01:23:38.139Z,14.00
2022-11-13T01:26:05.536Z,16.33
2022-11-13T01:28:31.964Z,15.50
2022-11-13T01:30:59.314Z,15.00
2022-11-13T01:36:11.600Z,15.67
2022-11-13T01:38:38.407Z,15.00
2022-11-13T01:41:05.965Z,14.67
2022-11-13T01:43:32.405Z,17.00
2022-11-13T01:45:58.895Z,15.50
2022-11-13T01:51:11.205Z,15.33
2022-11-13T01:53:38.559Z,16.33
2022-11-13T01:56:05.002Z,16.00
2022-11-13T01:58:32.406Z,15.33
2022-11-13T02:00:59.765Z,15.33
2022-11-13T02:06:22.343Z,15.33
2022-11-13T02:08:49.748Z,14.67
2022-11-13T02:11:17.122Z,16.67
2022-11-13T02:13:44.483Z,16.00
2022-11-13T02:16:10.924Z,16.00
2022-11-13T02:21:22.265Z,15.00
2022-11-13T02:23:49.653Z,17.33
2022-11-13T02:26:17.030Z,15.33
2022-11-13T02:28:43.471Z,17.00
2022-11-13T02:31:09.926Z,16.00
2022-11-13T02:36:31.195Z,15.00
2022-11-13T02:38:57.696Z,16.00
2022-11-13T02:41:24.147Z,16.00
2022-11-13T02:43:51.552Z,14.67
2022-11-13T02:46:18.941Z,13.67
2022-11-13T02:51:31.282Z,14.67
2022-11-13T02:53:58.677Z,13.67
2022-11-13T02:56:26.059Z,15.67
2022-11-13T02:58:52.512Z,13.00
2022-11-13T03:01:19.908Z,12.67
2022-11-13T03:06:32.125Z,14.33
2022-11-13T03:08:58.565Z,13.00
2022-11-13T03:11:26.023Z,13.33
2022-11-13T03:13:53.392Z,14.67
2022-11-13T03:16:19.837Z,14.00
2022-11-13T03:21:42.015Z,14.67
2022-11-13T03:24:08.472Z,13.50
2022-11-13T03:26:35.895Z,15.33
2022-11-13T03:29:03.243Z,13.67
2022-11-13T03:31:29.669Z,12.00
2022-11-13T03:36:51.004Z,14.50
2022-11-13T03:39:17.494Z,16.00
2022-11-13T03:41:43.921Z,15.00
2022-11-13T03:44:10.371Z,14.50
2022-11-13T03:46:37.746Z,13.33
2022-11-13T03:51:48.077Z,15.00
2022-11-13T03:54:14.531Z,14.00
2022-11-13T03:56:40.975Z,15.00
2022-11-13T03:59:08.333Z,14.00
2022-11-13T04:01:34.866Z,14.00
2022-11-13T04:06:46.428Z,14.00
2022-11-13T04:09:13.814Z,12.67
2022-11-13T04:11:40.258Z,14.50
2022-11-13T04:14:07.632Z,15.00
2022-11-13T04:16:34.996Z,13.33
2022-11-13T04:21:56.273Z,15.00
2022-11-13T04:24:22.724Z,16.00
2022-11-13T04:26:49.173Z,14.00
2022-11-13T04:29:15.685Z,13.00
2022-11-13T04:31:42.128Z,15.00
2022-11-13T04:36:53.594Z,13.67
2022-11-13T04:39:20.961Z,14.33
2022-11-13T04:41:52.552Z,12.00
2022-11-13T04:44:22.471Z,15.00
2022-11-13T04:46:48.910Z,14.50
2022-11-13T04:52:00.428Z,18.00
2022-11-13T04:54:28.861Z,16.50
2022-11-13T04:56:56.521Z,13.67
2022-11-13T04:59:22.985Z,13.50
2022-11-13T05:01:49.488Z,17.50
2022-11-13T05:07:09.860Z,16.00
2022-11-13T05:09:36.380Z,16.50
2022-11-13T05:12:03.751Z,16.00
2022-11-13T05:14:30.259Z,13.00
2022-11-13T05:16:56.697Z,11.00
2022-11-13T05:22:08.199Z,12.00
2022-11-13T05:24:35.456Z,10.67
2022-11-13T05:27:02.710Z,10.33
2022-11-13T05:29:29.123Z,12.00
2022-11-13T05:31:55.544Z,11.00
2022-11-13T05:34:22.747Z,8.33
2022-11-13T05:36:50.119Z,11.67
2022-11-13T05:39:17.419Z,10.33
2022-11-13T05:41:43.858Z,11.50
2022-11-13T05:44:10.280Z,9.00
2022-11-13T05:46:37.582Z,10.67
2022-11-13T05:49:03.980Z,9.50
2022-11-13T05:51:31.266Z,11.33
2022-11-13T05:53:58.940Z,9.00
2022-11-13T05:56:26.272Z,10.67
2022-11-13T05:58:52.763Z,13.00
2022-11-13T06:01:19.185Z,13.00
2022-11-13T06:03:46.543Z,14.00
2022-11-13T06:06:13.902Z,12.33
2022-11-13T06:08:40.339Z,12.00
2022-11-13T06:11:07.659Z,13.00
2022-11-13T06:13:34.103Z,14.00
2022-11-13T06:16:00.551Z,11.00
2022-11-13T06:18:27.081Z,11.00
2022-11-13T06:20:54.472Z,10.33
2022-11-13T06:23:20.897Z,9.00
2022-11-13T06:25:47.380Z,11.00
2022-11-13T06:28:15.641Z,9.20
2022-11-13T06:30:43.934Z,8.60
2022-11-13T06:33:12.155Z,6.40
2022-11-13T06:35:38.582Z,7.00
2022-11-13T06:38:07.723Z,7.00
2022-11-13T06:40:36.174Z,7.20
2022-11-13T06:43:02.602Z,7.00
2022-11-13T06:45:31.759Z,7.33
2022-11-13T06:47:58.967Z,6.00
2022-11-13T06:50:26.166Z,6.00
2022-11-13T06:52:55.574Z,8.67
2022-11-13T06:55:22.298Z,7.67
2022-11-13T06:57:48.928Z,6.50
2022-11-13T07:00:18.579Z,7.33
2022-11-13T07:02:44.966Z,5.00
2022-11-13T07:05:11.374Z,8.00
2022-11-13T07:10:31.730Z,6.00
2022-11-13T07:12:58.120Z,7.00
2022-11-13T07:15:24.555Z,7.00
2022-11-13T07:17:50.919Z,5.50
2022-11-13T07:20:17.259Z,6.00
2022-11-13T07:25:40.185Z,7.00
2022-11-13T07:28:06.703Z,7.00
2022-11-13T07:30:34.990Z,7.20
2022-11-13T07:33:01.434Z,7.00
2022-11-13T07:35:27.893Z,9.00
2022-11-13T07:40:39.321Z,10.00
2022-11-13T07:43:08.403Z,9.33
2022-11-13T07:45:35.670Z,11.33
2022-11-13T07:48:04.748Z,10.67
2022-11-13T07:50:31.287Z,10.00
2022-11-13T07:55:42.600Z,11.00
2022-11-13T07:58:09.857Z,11.00
2022-11-13T08:00:36.346Z,10.00
2022-11-13T08:03:04.762Z,10.80
2022-11-13T08:05:31.267Z,11.00
2022-11-13T08:10:52.555Z,11.00
2022-11-13T08:13:19.833Z,11.67
2022-11-13T08:15:46.265Z,10.00
2022-11-13T08:18:14.631Z,10.00
2022-11-13T08:20:42.924Z,10.00
2022-11-13T08:25:56.123Z,10.00
2022-11-13T08:28:25.402Z,9.33
2022-11-13T08:30:53.805Z,8.60
2022-11-13T08:33:20.282Z,8.50
2022-11-13T08:35:48.621Z,11.60
2022-11-13T08:41:01.261Z,9.00
2022-11-13T08:43:30.968Z,9.00
2022-11-13T08:46:00.953Z,10.00
2022-11-13T08:48:27.681Z,8.00
2022-11-13T08:50:54.440Z,8.00
2022-11-13T08:56:16.672Z,8.50
2022-11-13T08:58:44.962Z,10.20
2022-11-13T09:01:12.279Z,10.67
2022-11-13T09:03:38.832Z,8.50
2022-11-13T09:06:07.156Z,10.60
2022-11-13T09:11:27.395Z,9.50
2022-11-13T09:13:53.844Z,9.00
2022-11-13T09:16:20.357Z,9.00
2022-11-13T09:18:48.602Z,8.80
2022-11-13T09:21:15.071Z,8.00
2022-11-13T09:26:29.296Z,7.60
2022-11-13T09:28:57.590Z,10.00
2022-11-13T09:31:24.036Z,8.50
2022-11-13T09:33:52.311Z,8.00
2022-11-13T09:36:18.804Z,9.00
2022-11-13T09:41:29.538Z,7.00
2022-11-13T09:44:00.076Z,7.60
2022-11-13T09:46:26.653Z,9.00
2022-11-13T09:48:55.938Z,7.50
2022-11-13T09:51:22.327Z,10.00
2022-11-13T09:56:45.476Z,10.00
2022-11-13T09:59:13.851Z,10.00
2022-11-13T10:01:40.293Z,3.33
2022-11-13T10:04:08.140Z,5.33
2022-11-13T10:06:39.222Z,9.20
2022-11-13T10:11:55.524Z,8.40
2022-11-13T10:14:24.693Z,7.67
2022-11-13T10:16:53.911Z,7.33
2022-11-13T10:19:22.182Z,7.80
2022-11-13T10:21:54.967Z,7.60
2022-11-13T10:27:19.516Z,8.00
2022-11-13T10:29:49.433Z,7.00
2022-11-13T10:32:15.961Z,9.00
2022-11-13T10:34:45.216Z,7.67
2022-11-13T10:37:11.611Z,8.50
2022-11-13T10:42:22.877Z,7.25
2022-11-13T10:44:52.033Z,6.67
2022-11-13T10:47:36.501Z,6.00
2022-11-13T10:50:06.663Z,6.00
2022-11-13T10:52:33.905Z,6.25
2022-11-13T10:57:47.186Z,2.50
2022-11-13T11:00:14.423Z,6.25
2022-11-13T11:02:40.857Z,8.00
2022-11-13T11:05:09.145Z,6.80
2022-11-13T11:07:35.540Z,6.33
2022-11-13T11:12:55.654Z,6.00
2022-11-13T11:15:22.061Z,5.00
2022-11-13T11:17:48.423Z,5.33
2022-11-13T11:20:15.614Z,5.00
2022-11-13T11:22:41.965Z,4.33
2022-11-13T11:27:52.074Z,6.00
2022-11-13T11:30:18.417Z,6.00
2022-11-13T11:32:44.864Z,4.33
2022-11-13T11:35:12.073Z,4.00
2022-11-13T11:37:38.439Z,3.33
2022-11-13T11:42:58.546Z,3.00
2022-11-13T11:45:24.969Z,2.00
2022-11-13T11:47:51.296Z,4.33
2022-11-13T11:50:18.521Z,3.75
2022-11-13T11:52:44.859Z,4.00
2022-11-13T11:57:55.370Z,3.33
2022-11-13T12:00:21.707Z,3.00
2022-11-13T12:02:48.045Z,4.67
2022-11-13T12:05:19.693Z,4.75
2022-11-13T12:07:46.368Z,5.33
2022-11-13T12:12:56.572Z,6.33
2022-11-13T12:15:22.949Z,6.00
2022-11-13T12:17:49.289Z,5.33
2022-11-13T12:20:16.511Z,6.00
2022-11-13T12:22:42.842Z,6.00
2022-11-13T12:28:04.960Z,6.00
2022-11-13T12:30:31.314Z,6.00
2022-11-13T12:32:57.633Z,6.00
2022-11-13T12:35:23.978Z,4.00
2022-11-13T12:37:50.368Z,6.50
2022-11-13T12:43:03.296Z,8.80
2022-11-13T12:45:29.703Z,9.00
2022-11-13T12:47:56.219Z,8.50
2022-11-13T12:50:27.326Z,6.00
2022-11-13T12:52:56.971Z,9.00
2022-11-13T12:58:07.620Z,8.00
2022-11-13T13:00:34.041Z,7.00
2022-11-13T13:03:02.303Z,8.40
2022-11-13T13:05:28.727Z,9.50
2022-11-13T13:08:03.591Z,9.71
2022-11-13T13:13:29.027Z,9.57
2022-11-13T13:15:55.505Z,7.00
2022-11-13T13:18:25.563Z,8.86
2022-11-13T13:20:53.952Z,9.20
2022-11-13T13:23:21.144Z,4.75
2022-11-13T13:28:31.996Z,8.00
2022-11-13T13:31:00.459Z,8.40
2022-11-13T13:33:26.909Z,9.00
2022-11-13T13:35:55.448Z,9.20
2022-11-13T13:38:21.867Z,9.00
2022-11-13T13:43:45.706Z,7.50
2022-11-13T13:46:14.871Z,8.50
2022-11-13T13:48:41.314Z,7.00
2022-11-13T13:51:09.592Z,8.20
2022-11-13T13:53:38.762Z,7.50
2022-11-13T13:58:59.269Z,9.00
2022-11-13T14:01:25.825Z,9.00
2022-11-13T14:03:52.327Z,9.00
2022-11-13T14:06:21.493Z,8.50
2022-11-13T14:08:49.775Z,9.40
2022-11-13T14:14:02.230Z,8.00
2022-11-13T14:16:30.554Z,9.00
2022-11-13T14:18:56.955Z,9.00
2022-11-13T14:21:26.137Z,8.83
2022-11-13T14:23:55.325Z,9.50
2022-11-13T14:29:18.467Z,9.33
2022-11-13T14:31:44.930Z,9.50
2022-11-13T14:34:12.193Z,9.33
2022-11-13T14:36:39.492Z,11.00
2022-11-13T14:39:05.904Z,10.00
2022-11-13T14:44:18.467Z,11.00
2022-11-13T14:46:48.424Z,10.00
2022-11-13T14:49:14.988Z,9.00
2022-11-13T14:51:44.999Z,10.43
2022-11-13T14:54:13.289Z,10.00
2022-11-13T14:59:26.491Z,10.33
2022-11-13T15:01:52.970Z,9.00
2022-11-13T15:04:19.376Z,8.00
2022-11-13T15:06:45.838Z,8.50
2022-11-13T15:09:13.269Z,9.33
2022-11-13T15:14:24.046Z,9.50
2022-11-13T15:16:50.439Z,9.00
2022-11-13T15:19:17.783Z,10.33
2022-11-13T15:22:05.479Z,9.40
2022-11-13T15:24:34.401Z,9.80
2022-11-13T15:29:59.217Z,8.83
2022-11-13T15:32:26.475Z,10.00
2022-11-13T15:34:56.416Z,10.57
2022-11-13T15:37:24.920Z,10.60
2022-11-13T15:39:52.174Z,11.33
2022-11-13T15:45:03.431Z,8.50
2022-11-13T15:47:31.712Z,10.00
2022-11-13T15:50:16.697Z,7.33
2022-11-13T15:52:43.330Z,9.00
2022-11-13T15:55:12.519Z,6.17
2022-11-13T16:00:23.102Z,5.50
2022-11-13T16:02:49.550Z,5.67
2022-11-13T16:05:15.947Z,7.67
2022-11-13T16:07:42.603Z,7.33
2022-11-13T16:10:09.945Z,7.25
2022-11-13T16:15:30.320Z,6.50
2022-11-13T16:17:57.556Z,7.50
2022-11-13T16:20:23.948Z,6.33
2022-11-13T16:22:51.160Z,6.00
2022-11-13T16:25:17.588Z,6.00
2022-11-13T16:30:38.740Z,7.00
2022-11-13T16:33:06.148Z,5.00
2022-11-13T16:35:32.511Z,6.00
2022-11-13T16:37:59.754Z,7.50
2022-11-13T16:40:28.940Z,7.33
2022-11-13T16:45:39.526Z,6.00
2022-11-13T16:48:05.942Z,6.67
2022-11-13T16:50:32.306Z,5.00
2022-11-13T16:52:59.542Z,7.00
2022-11-13T16:55:25.891Z,6.00
2022-11-13T17:00:46.341Z,5.00
2022-11-13T17:03:12.715Z,5.00
2022-11-13T17:05:39.099Z,6.00
2022-11-13T17:08:05.467Z,5.00
2022-11-13T17:10:32.844Z,4.50
2022-11-13T17:15:54.682Z,6.00
2022-11-13T17:18:21.195Z,2.33
2022-11-13T17:20:48.390Z,5.00
2022-11-13T17:23:15.622Z,6.00
2022-11-13T17:25:41.967Z,5.00
2022-11-13T17:30:56.443Z,5.00
2022-11-13T17:33:25.421Z,6.00
2022-11-13T17:35:51.755Z,5.00
2022-11-13T17:38:18.106Z,5.00
2022-11-13T17:40:44.627Z,6.00
2022-11-13T17:45:56.063Z,4.67
2022-11-13T17:48:22.383Z,5.00
2022-11-13T17:50:48.768Z,6.00
2022-11-13T17:53:15.152Z,6.00
2022-11-13T17:55:41.547Z,5.67
2022-11-13T18:01:01.731Z,0.00
2022-11-13T18:03:30.388Z,5.60
2022-11-13T18:05:57.970Z,7.25
2022-11-13T18:08:24.328Z,5.00
2022-11-13T18:10:50.668Z,6.00
2022-11-13T18:16:03.644Z,4.67
2022-11-13T18:18:30.097Z,10.00
2022-11-13T18:20:57.353Z,6.00
2022-11-13T18:23:25.918Z,8.00
2022-11-13T18:25:52.742Z,7.00
2022-11-13T18:31:08.804Z,8.00
2022-11-13T18:33:35.208Z,8.00
2022-11-13T18:36:02.415Z,5.50
2022-11-13T18:38:28.817Z,5.50
2022-11-13T18:40:55.208Z,6.33
2022-11-13T18:46:21.344Z,6.50
2022-11-13T18:48:47.906Z,7.00
2022-11-13T18:51:15.134Z,6.00
2022-11-13T18:53:44.308Z,7.33
2022-11-13T18:56:11.564Z,8.00
2022-11-13T19:01:25.738Z,8.00
2022-11-13T19:04:21.179Z,7.00
2022-11-13T19:06:41.302Z,7.00
2022-11-13T19:09:07.833Z,8.00
2022-11-13T19:11:36.220Z,9.20
2022-11-13T19:16:51.390Z,7.40
2022-11-13T19:19:17.840Z,7.00
2022-11-13T19:21:44.253Z,7.50
2022-11-13T19:24:12.495Z,6.80
2022-11-13T19:26:40.703Z,6.80
2022-11-13T19:32:01.645Z,8.50
2022-11-13T19:34:30.823Z,6.50
2022-11-13T19:36:57.266Z,7.00
2022-11-13T19:39:24.555Z,5.50
2022-11-13T19:41:51.799Z,9.67
2022-11-13T19:47:04.259Z,7.40
2022-11-13T19:49:30.900Z,10.00
2022-11-13T19:51:59.225Z,8.20
2022-11-13T19:54:25.763Z,8.00
2022-11-13T19:56:54.965Z,8.33
2022-11-13T20:02:05.346Z,8.00
2022-11-13T20:04:31.906Z,8.00
2022-11-13T20:07:00.452Z,7.80
2022-11-13T20:09:29.676Z,7.17
2022-11-13T20:11:56.107Z,7.00
2022-11-13T20:17:18.404Z,7.00
2022-11-13T20:19:47.585Z,7.33
2022-11-13T20:22:14.852Z,6.50
2022-11-13T20:24:43.134Z,7.00
2022-11-13T20:27:10.414Z,7.00
2022-11-13T20:32:30.906Z,8.00
2022-11-13T20:34:59.339Z,8.60
2022-11-13T20:37:25.836Z,7.00
2022-11-13T20:39:54.147Z,9.60
2022-11-13T20:42:20.631Z,8.00
2022-11-13T20:47:33.113Z,6.33
2022-11-13T20:49:59.549Z,8.00
2022-11-13T20:52:28.772Z,6.00
2022-11-13T20:54:57.046Z,7.20
2022-11-13T20:57:26.502Z,6.17
2022-11-13T21:02:38.830Z,6.80
2022-11-13T21:05:05.287Z,6.00
2022-11-13T21:07:31.774Z,5.00
2022-11-13T21:09:59.031Z,6.25
2022-11-13T21:12:26.238Z,6.00
2022-11-13T21:17:46.671Z,5.00
2022-11-13T21:20:14.967Z,7.20
2022-11-13T21:22:41.389Z,8.00
2022-11-13T21:25:10.514Z,7.00
2022-11-13T21:27:36.926Z,6.00
2022-11-13T21:32:48.268Z,6.25
2022-11-13T21:35:18.564Z,5.00
2022-11-13T21:37:49.734Z,8.00
2022-11-13T21:40:16.135Z,6.00
2022-11-13T21:42:45.323Z,7.00
2022-11-13T21:48:00.648Z,6.83
2022-11-13T21:50:26.991Z,5.67
2022-11-13T21:52:56.146Z,6.33
2022-11-13T21:55:22.563Z,6.50
2022-11-13T21:57:48.912Z,6.00
2022-11-13T22:03:10.155Z,5.00
2022-11-13T22:05:36.533Z,6.00
2022-11-13T22:08:02.908Z,5.00
2022-11-13T22:10:29.301Z,5.00
2022-11-13T22:12:55.648Z,6.00
2022-11-13T22:18:07.339Z,6.00
2022-11-13T22:20:33.644Z,6.00
2022-11-13T22:22:59.997Z,4.00
2022-11-13T22:25:26.437Z,5.00
2022-11-13T22:27:52.805Z,5.67
2022-11-13T22:33:03.178Z,5.67
2022-11-13T22:35:29.516Z,4.67
2022-11-13T22:37:55.922Z,4.67
2022-11-13T22:40:22.258Z,4.00
2022-11-13T22:42:48.702Z,10.50
2022-11-13T22:45:23.682Z,12.00
2022-11-13T22:48:02.466Z,10.67
2022-11-13T22:50:29.880Z,15.33
2022-11-13T22:52:56.331Z,13.00
2022-11-13T22:55:24.566Z,7.20
2022-11-13T22:57:52.877Z,10.00
2022-11-13T23:00:20.229Z,9.33
2022-11-13T23:02:47.677Z,10.00
2022-11-13T23:05:14.188Z,6.00
2022-11-13T23:07:40.627Z,10.00
2022-11-13T23:10:08.903Z,8.00
2022-11-13T23:12:35.379Z,7.00
2022-11-13T23:15:01.801Z,9.00
2022-11-13T23:17:30.134Z,6.20
2022-11-13T23:19:57.379Z,8.50
2022-11-13T23:22:23.789Z,7.00
2022-11-13T23:24:52.057Z,8.20
2022-11-13T23:27:20.332Z,9.20
2022-11-13T23:29:50.338Z,8.40
2022-11-13T23:32:18.792Z,7.00
2022-11-13T23:35:00.862Z,8.00
2022-11-13T23:37:29.118Z,7.80
2022-11-13T23:39:57.419Z,9.20
2022-11-13T23:42:45.642Z,6.33
2022-11-13T23:45:13.046Z,8.00
2022-11-13T23:47:41.333Z,9.20
2022-11-13T23:50:07.753Z,9.00
2022-11-13T23:52:34.170Z,9.00
2022-11-13T23:55:00.612Z,9.00
2022-11-13T23:57:27.068Z,8.50
2022-11-13T23:59:55.354Z,9.80
